sensor_id;sensor_type;location;lat;lon;timestamp;temperature;humidity
2565;DHT22;1292;48.020;7.822;2023-03-23T06:47:42;15.60;99.90
2565;DHT22;1292;48.020;7.822;2023-03-23T06:50:09;15.70;99.90
2565;DHT22;1292;48.020;7.822;2023-03-23T06:52:36;15.70;99.90
2565;DHT22;1292;48.020;7.822;2023-03-23T06:55:03;15.70;99.90
2565;DHT22;1292;48.020;7.822;2023-03-23T06:57:31;15.60;99.90
2565;DHT22;1292;48.020;7.822;2023-03-23T06:59:57;15.60;99.90
2565;DHT22;1292;48.020;7.822;2023-03-23T07:02:24;15.60;99.90
2565;DHT22;1292;48.020;7.822;2023-03-23T07:04:52;15.60;99.90
2565;DHT22;1292;48.020;7.822;2023-03-23T07:07:20;15.60;99.90
2565;DHT22;1292;48.020;7.822;2023-03-23T07:09:46;15.60;99.90
2565;DHT22;1292;48.020;7.822;2023-03-23T07:12:13;15.60;99.90
2565;DHT22;1292;48.020;7.822;2023-03-23T07:14:41;15.60;99.90
2565;DHT22;1292;48.020;7.822;2023-03-23T07:17:08;15.60;99.90
2565;DHT22;1292;48.020;7.822;2023-03-23T07:19:35;15.60;99.90
2565;DHT22;1292;48.020;7.822;2023-03-23T07:22:06;15.60;99.90
2565;DHT22;1292;48.020;7.822;2023-03-23T07:24:34;15.60;99.90
2565;DHT22;1292;48.020;7.822;2023-03-23T07:27:01;15.60;99.90
2565;DHT22;1292;48.020;7.822;2023-03-23T07:29:28;15.70;99.90
2565;DHT22;1292;48.020;7.822;2023-03-23T07:31:55;15.60;99.90
2565;DHT22;1292;48.020;7.822;2023-03-23T07:34:22;15.60;99.90
2565;DHT22;1292;48.020;7.822;2023-03-23T07:36:49;15.60;99.90
2565;DHT22;1292;48.020;7.822;2023-03-23T07:39:17;15.50;99.90
2565;DHT22;1292;48.020;7.822;2023-03-23T07:41:44;15.50;99.90
2565;DHT22;1292;48.020;7.822;2023-03-23T07:44:11;15.40;99.90
2565;DHT22;1292;48.020;7.822;2023-03-23T07:46:38;15.40;99.90
2565;DHT22;1292;48.020;7.822;2023-03-23T07:49:05;15.30;99.90
2565;DHT22;1292;48.020;7.822;2023-03-23T07:51:33;15.20;99.90
2565;DHT22;1292;48.020;7.822;2023-03-23T07:54:00;15.20;99.90
2565;DHT22;1292;48.020;7.822;2023-03-23T07:56:30;15.10;99.90
2565;DHT22;1292;48.020;7.822;2023-03-23T07:58:57;15.10;99.90
2565;DHT22;1292;48.020;7.822;2023-03-23T08:01:24;15.00;99.90
2565;DHT22;1292;48.020;7.822;2023-03-23T08:03:50;15.00;99.90
2565;DHT22;1292;48.020;7.822;2023-03-23T08:06:20;15.00;99.90
2565;DHT22;1292;48.020;7.822;2023-03-23T08:08:48;15.00;99.90
2565;DHT22;1292;48.020;7.822;2023-03-23T08:11:16;14.90;99.90
2565;DHT22;1292;48.020;7.822;2023-03-23T08:13:45;15.00;99.90
2565;DHT22;1292;48.020;7.822;2023-03-23T08:16:12;15.00;99.90
2565;DHT22;1292;48.020;7.822;2023-03-23T08:18:39;15.00;99.90
2565;DHT22;1292;48.020;7.822;2023-03-23T08:21:07;14.90;99.90
2565;DHT22;1292;48.020;7.822;2023-03-23T08:23:35;14.90;99.90
2565;DHT22;1292;48.020;7.822;2023-03-23T08:26:04;15.00;99.90
2565;DHT22;1292;48.020;7.822;2023-03-23T08:28:32;15.00;99.90
2565;DHT22;1292;48.020;7.822;2023-03-23T08:31:05;14.90;99.90
2565;DHT22;1292;48.020;7.822;2023-03-23T08:33:32;14.90;99.90
2565;DHT22;1292;48.020;7.822;2023-03-23T08:35:59;14.90;99.90
2565;DHT22;1292;48.020;7.822;2023-03-23T08:38:27;15.00;99.90
2565;DHT22;1292;48.020;7.822;2023-03-23T08:40:57;15.00;99.90
2565;DHT22;1292;48.020;7.822;2023-03-23T08:43:24;15.00;99.90
2565;DHT22;1292;48.020;7.822;2023-03-23T08:45:51;15.00;99.90
2565;DHT22;1292;48.020;7.822;2023-03-23T08:48:20;15.10;99.90
2565;DHT22;1292;48.020;7.822;2023-03-23T08:50:47;15.10;99.90
2565;DHT22;1292;48.020;7.822;2023-03-23T08:53:13;15.10;99.90
2565;DHT22;1292;48.020;7.822;2023-03-23T08:55:41;15.10;99.90
2565;DHT22;1292;48.020;7.822;2023-03-23T08:58:08;15.20;99.90
2565;DHT22;1292;48.020;7.822;2023-03-23T09:00:35;15.20;99.90
2565;DHT22;1292;48.020;7.822;2023-03-23T09:03:02;15.20;99.90
2565;DHT22;1292;48.020;7.822;2023-03-23T09:05:31;15.20;99.90
2565;DHT22;1292;48.020;7.822;2023-03-23T09:07:58;15.30;99.90
2565;DHT22;1292;48.020;7.822;2023-03-23T09:10:26;15.30;99.90
2565;DHT22;1292;48.020;7.822;2023-03-23T09:12:54;15.30;99.90
2565;DHT22;1292;48.020;7.822;2023-03-23T09:15:21;15.30;99.90
2565;DHT22;1292;48.020;7.822;2023-03-23T09:17:50;15.30;99.90
2565;DHT22;1292;48.020;7.822;2023-03-23T09:20:19;15.30;99.90
2565;DHT22;1292;48.020;7.822;2023-03-23T09:22:49;15.40;99.90
2565;DHT22;1292;48.020;7.822;2023-03-23T09:25:17;15.40;99.90
2565;DHT22;1292;48.020;7.822;2023-03-23T09:27:48;15.50;99.90
2565;DHT22;1292;48.020;7.822;2023-03-23T09:30:18;15.50;99.90
2565;DHT22;1292;48.020;7.822;2023-03-23T09:32:46;15.50;99.90
2565;DHT22;1292;48.020;7.822;2023-03-23T09:35:14;15.50;99.90
2565;DHT22;1292;48.020;7.822;2023-03-23T09:37:42;15.60;99.90
2565;DHT22;1292;48.020;7.822;2023-03-23T09:40:14;15.70;99.90
2565;DHT22;1292;48.020;7.822;2023-03-23T09:43:06;15.80;99.90
2565;DHT22;1292;48.020;7.822;2023-03-23T09:45:39;15.80;99.90
2565;DHT22;1292;48.020;7.822;2023-03-23T09:48:26;15.90;99.90
2565;DHT22;1292;48.020;7.822;2023-03-23T09:50:58;16.00;99.90
2565;DHT22;1292;48.020;7.822;2023-03-23T09:53:29;16.00;99.90
2565;DHT22;1292;48.020;7.822;2023-03-23T09:56:03;16.00;99.90
2565;DHT22;1292;48.020;7.822;2023-03-23T09:58:37;16.00;99.90
2565;DHT22;1292;48.020;7.822;2023-03-23T10:01:08;16.00;99.90
2565;DHT22;1292;48.020;7.822;2023-03-23T10:03:38;15.90;99.90
2565;DHT22;1292;48.020;7.822;2023-03-23T10:06:08;15.90;99.90
2565;DHT22;1292;48.020;7.822;2023-03-23T10:08:44;15.90;99.90
2565;DHT22;1292;48.020;7.822;2023-03-23T10:11:23;16.00;99.90
2565;DHT22;1292;48.020;7.822;2023-03-23T10:14:09;16.00;99.90
2565;DHT22;1292;48.020;7.822;2023-03-23T10:16:42;16.00;99.90
2565;DHT22;1292;48.020;7.822;2023-03-23T10:19:16;16.00;99.90
2565;DHT22;1292;48.020;7.822;2023-03-23T10:21:47;16.00;99.90
2565;DHT22;1292;48.020;7.822;2023-03-23T10:24:21;16.20;99.90
2565;DHT22;1292;48.020;7.822;2023-03-23T10:26:57;16.40;99.90
2565;DHT22;1292;48.020;7.822;2023-03-23T10:29:29;16.50;99.90
2565;DHT22;1292;48.020;7.822;2023-03-23T10:32:00;16.60;99.90
2565;DHT22;1292;48.020;7.822;2023-03-23T10:34:32;16.80;99.90
2565;DHT22;1292;48.020;7.822;2023-03-23T10:37:04;17.00;99.90
2565;DHT22;1292;48.020;7.822;2023-03-23T10:39:38;17.20;99.90
2565;DHT22;1292;48.020;7.822;2023-03-23T10:42:09;17.40;99.90
2565;DHT22;1292;48.020;7.822;2023-03-23T10:44:36;17.50;99.90
2565;DHT22;1292;48.020;7.822;2023-03-23T10:47:05;17.60;99.90
2565;DHT22;1292;48.020;7.822;2023-03-23T10:49:36;17.80;99.90
2565;DHT22;1292;48.020;7.822;2023-03-23T10:52:17;17.80;99.90
2565;DHT22;1292;48.020;7.822;2023-03-23T10:54:50;17.70;99.90
2565;DHT22;1292;48.020;7.822;2023-03-23T10:57:24;17.70;99.90
2565;DHT22;1292;48.020;7.822;2023-03-23T10:59:58;17.80;99.90
2565;DHT22;1292;48.020;7.822;2023-03-23T11:02:25;17.80;99.90
2565;DHT22;1292;48.020;7.822;2023-03-23T11:04:59;17.80;99.90
2565;DHT22;1292;48.020;7.822;2023-03-23T11:07:29;17.80;99.90
2565;DHT22;1292;48.020;7.822;2023-03-23T11:09:57;17.80;99.90
2565;DHT22;1292;48.020;7.822;2023-03-23T11:12:33;17.70;99.90
2565;DHT22;1292;48.020;7.822;2023-03-23T11:15:15;17.80;99.90
2565;DHT22;1292;48.020;7.822;2023-03-23T11:17:43;17.80;99.90
2565;DHT22;1292;48.020;7.822;2023-03-23T11:20:11;17.80;99.90
2565;DHT22;1292;48.020;7.822;2023-03-23T11:22:39;17.80;99.90
2565;DHT22;1292;48.020;7.822;2023-03-23T11:25:12;17.80;99.90
2565;DHT22;1292;48.020;7.822;2023-03-23T11:27:42;17.80;99.90
2565;DHT22;1292;48.020;7.822;2023-03-23T11:30:19;17.90;99.90
2565;DHT22;1292;48.020;7.822;2023-03-23T11:32:47;17.80;99.90
2565;DHT22;1292;48.020;7.822;2023-03-23T11:35:17;17.90;99.90
2565;DHT22;1292;48.020;7.822;2023-03-23T11:37:47;17.90;99.90
2565;DHT22;1292;48.020;7.822;2023-03-23T11:40:17;18.00;99.90
2565;DHT22;1292;48.020;7.822;2023-03-23T11:42:48;18.00;99.90
2565;DHT22;1292;48.020;7.822;2023-03-23T11:45:19;18.00;99.90
2565;DHT22;1292;48.020;7.822;2023-03-23T11:47:56;18.00;99.90
2565;DHT22;1292;48.020;7.822;2023-03-23T11:50:26;18.10;99.90
2565;DHT22;1292;48.020;7.822;2023-03-23T11:53:00;18.20;99.90
2565;DHT22;1292;48.020;7.822;2023-03-23T11:55:32;18.30;99.90
2565;DHT22;1292;48.020;7.822;2023-03-23T11:58:13;18.20;99.90
2565;DHT22;1292;48.020;7.822;2023-03-23T12:00:46;18.30;99.90
2565;DHT22;1292;48.020;7.822;2023-03-23T12:03:16;18.20;99.90
2565;DHT22;1292;48.020;7.822;2023-03-23T12:05:48;18.20;99.90
2565;DHT22;1292;48.020;7.822;2023-03-23T12:11:15;18.30;99.90
2565;DHT22;1292;48.020;7.822;2023-03-23T12:13:56;18.30;99.90
2565;DHT22;1292;48.020;7.822;2023-03-23T12:16:38;18.10;99.90
2565;DHT22;1292;48.020;7.822;2023-03-23T12:19:15;18.10;99.90
2565;DHT22;1292;48.020;7.822;2023-03-23T12:21:52;18.10;99.90
2565;DHT22;1292;48.020;7.822;2023-03-23T12:24:31;18.10;99.90
2565;DHT22;1292;48.020;7.822;2023-03-23T12:27:05;18.20;99.90
2565;DHT22;1292;48.020;7.822;2023-03-23T12:29:52;18.20;99.90
2565;DHT22;1292;48.020;7.822;2023-03-23T12:32:47;18.30;99.90
2565;DHT22;1292;48.020;7.822;2023-03-23T12:35:25;18.20;99.90
2565;DHT22;1292;48.020;7.822;2023-03-23T12:38:12;18.30;99.90
2565;DHT22;1292;48.020;7.822;2023-03-23T12:40:49;18.20;99.90
2565;DHT22;1292;48.020;7.822;2023-03-23T12:43:25;18.30;99.90
2565;DHT22;1292;48.020;7.822;2023-03-23T12:46:09;18.10;99.90
2565;DHT22;1292;48.020;7.822;2023-03-23T12:48:40;18.20;99.90
2565;DHT22;1292;48.020;7.822;2023-03-23T12:51:16;18.20;99.90
2565;DHT22;1292;48.020;7.822;2023-03-23T12:53:50;18.20;99.90
2565;DHT22;1292;48.020;7.822;2023-03-23T12:56:25;18.20;99.90
2565;DHT22;1292;48.020;7.822;2023-03-23T12:59:01;18.10;99.90
2565;DHT22;1292;48.020;7.822;2023-03-23T13:01:34;18.00;99.90
2565;DHT22;1292;48.020;7.822;2023-03-23T13:04:06;18.00;99.90
2565;DHT22;1292;48.020;7.822;2023-03-23T13:06:36;18.00;99.90
2565;DHT22;1292;48.020;7.822;2023-03-23T13:09:07;18.00;99.90
2565;DHT22;1292;48.020;7.822;2023-03-23T13:11:37;18.00;99.90
2565;DHT22;1292;48.020;7.822;2023-03-23T13:14:16;18.00;99.90
2565;DHT22;1292;48.020;7.822;2023-03-23T13:16:53;18.00;99.90
2565;DHT22;1292;48.020;7.822;2023-03-23T13:19:27;17.90;99.90
2565;DHT22;1292;48.020;7.822;2023-03-23T13:22:01;17.90;99.90
2565;DHT22;1292;48.020;7.822;2023-03-23T13:24:32;17.80;99.90
2565;DHT22;1292;48.020;7.822;2023-03-23T13:27:00;17.70;99.90
2565;DHT22;1292;48.020;7.822;2023-03-23T13:29:27;17.70;99.90
2565;DHT22;1292;48.020;7.822;2023-03-23T13:32:09;17.70;99.90
2565;DHT22;1292;48.020;7.822;2023-03-23T13:34:38;17.70;99.90
2565;DHT22;1292;48.020;7.822;2023-03-23T13:37:10;17.70;99.90
2565;DHT22;1292;48.020;7.822;2023-03-23T13:39:48;17.60;99.90
2565;DHT22;1292;48.020;7.822;2023-03-23T13:42:21;17.70;99.90
2565;DHT22;1292;48.020;7.822;2023-03-23T13:45:07;17.60;99.90
2565;DHT22;1292;48.020;7.822;2023-03-23T13:47:40;17.70;99.90
2565;DHT22;1292;48.020;7.822;2023-03-23T13:50:25;17.70;99.90
2565;DHT22;1292;48.020;7.822;2023-03-23T13:52:57;17.60;99.90
2565;DHT22;1292;48.020;7.822;2023-03-23T13:55:38;17.70;99.90
2565;DHT22;1292;48.020;7.822;2023-03-23T13:58:21;17.70;99.90
2565;DHT22;1292;48.020;7.822;2023-03-23T14:01:00;17.80;99.90
2565;DHT22;1292;48.020;7.822;2023-03-23T14:03:36;17.80;99.90
2565;DHT22;1292;48.020;7.822;2023-03-23T14:06:05;17.80;99.90
2565;DHT22;1292;48.020;7.822;2023-03-23T14:08:39;17.80;99.90
2565;DHT22;1292;48.020;7.822;2023-03-23T14:11:15;17.80;99.90
2565;DHT22;1292;48.020;7.822;2023-03-23T14:13:46;17.80;99.90
2565;DHT22;1292;48.020;7.822;2023-03-23T14:16:16;17.80;99.90
2565;DHT22;1292;48.020;7.822;2023-03-23T14:18:52;17.70;99.90
2565;DHT22;1292;48.020;7.822;2023-03-23T14:21:31;17.70;99.90
2565;DHT22;1292;48.020;7.822;2023-03-23T14:24:01;17.70;99.90
2565;DHT22;1292;48.020;7.822;2023-03-23T14:26:28;17.60;99.90
2565;DHT22;1292;48.020;7.822;2023-03-23T14:28:55;17.60;99.90
2565;DHT22;1292;48.020;7.822;2023-03-23T14:31:27;17.50;99.90
2565;DHT22;1292;48.020;7.822;2023-03-23T14:34:00;17.50;99.90
2565;DHT22;1292;48.020;7.822;2023-03-23T14:36:29;17.60;99.90
2565;DHT22;1292;48.020;7.822;2023-03-23T14:39:04;17.50;99.90
2565;DHT22;1292;48.020;7.822;2023-03-23T14:41:34;17.50;99.90
2565;DHT22;1292;48.020;7.822;2023-03-23T14:44:02;17.50;99.90
2565;DHT22;1292;48.020;7.822;2023-03-23T14:46:31;17.50;99.90
2565;DHT22;1292;48.020;7.822;2023-03-23T14:49:02;17.50;99.90
2565;DHT22;1292;48.020;7.822;2023-03-23T14:51:29;17.60;99.90
2565;DHT22;1292;48.020;7.822;2023-03-23T14:53:59;17.60;99.90
2565;DHT22;1292;48.020;7.822;2023-03-23T14:56:33;17.60;99.90
2565;DHT22;1292;48.020;7.822;2023-03-23T14:59:04;17.50;99.90
2565;DHT22;1292;48.020;7.822;2023-03-23T15:01:34;17.60;99.90
2565;DHT22;1292;48.020;7.822;2023-03-23T15:04:07;17.50;99.90
2565;DHT22;1292;48.020;7.822;2023-03-23T15:06:37;17.50;99.90
2565;DHT22;1292;48.020;7.822;2023-03-23T15:09:07;17.50;99.90
2565;DHT22;1292;48.020;7.822;2023-03-23T15:11:38;17.50;99.90
2565;DHT22;1292;48.020;7.822;2023-03-23T15:14:10;17.50;99.90
2565;DHT22;1292;48.020;7.822;2023-03-23T15:16:39;17.50;99.90
2565;DHT22;1292;48.020;7.822;2023-03-23T15:19:16;17.50;99.90
2565;DHT22;1292;48.020;7.822;2023-03-23T15:21:49;17.50;99.90
2565;DHT22;1292;48.020;7.822;2023-03-23T15:24:25;17.60;99.90
2565;DHT22;1292;48.020;7.822;2023-03-23T15:26:53;17.60;99.90
2565;DHT22;1292;48.020;7.822;2023-03-23T15:29:22;17.50;99.90
2565;DHT22;1292;48.020;7.822;2023-03-23T15:31:51;17.60;99.90
2565;DHT22;1292;48.020;7.822;2023-03-23T15:34:30;17.60;99.90
2565;DHT22;1292;48.020;7.822;2023-03-23T15:37:00;17.70;99.90
2565;DHT22;1292;48.020;7.822;2023-03-23T15:39:28;17.70;99.90
2565;DHT22;1292;48.020;7.822;2023-03-23T15:41:56;17.70;99.90
2565;DHT22;1292;48.020;7.822;2023-03-23T15:44:29;17.70;99.90
2565;DHT22;1292;48.020;7.822;2023-03-23T15:47:12;17.70;99.90
2565;DHT22;1292;48.020;7.822;2023-03-23T15:49:42;17.70;99.90
2565;DHT22;1292;48.020;7.822;2023-03-23T15:52:10;17.70;99.90
2565;DHT22;1292;48.020;7.822;2023-03-23T15:54:37;17.70;99.90
2565;DHT22;1292;48.020;7.822;2023-03-23T15:57:04;17.70;99.90
2565;DHT22;1292;48.020;7.822;2023-03-23T15:59:30;17.70;99.90
2565;DHT22;1292;48.020;7.822;2023-03-23T16:01:57;17.60;99.90
2565;DHT22;1292;48.020;7.822;2023-03-23T16:04:24;17.60;99.90
2565;DHT22;1292;48.020;7.822;2023-03-23T16:06:55;17.60;99.90
2565;DHT22;1292;48.020;7.822;2023-03-23T16:09:23;17.60;99.90
2565;DHT22;1292;48.020;7.822;2023-03-23T16:11:50;17.60;99.90
2565;DHT22;1292;48.020;7.822;2023-03-23T16:14:17;17.50;99.90
2565;DHT22;1292;48.020;7.822;2023-03-23T16:16:46;17.50;99.90
2565;DHT22;1292;48.020;7.822;2023-03-23T16:19:14;17.50;99.90
2565;DHT22;1292;48.020;7.822;2023-03-23T16:21:41;17.50;99.90
2565;DHT22;1292;48.020;7.822;2023-03-23T16:24:10;17.50;99.90
2565;DHT22;1292;48.020;7.822;2023-03-23T16:26:38;17.40;99.90
2565;DHT22;1292;48.020;7.822;2023-03-23T16:29:10;17.40;99.90
2565;DHT22;1292;48.020;7.822;2023-03-23T16:31:37;17.40;99.90
2565;DHT22;1292;48.020;7.822;2023-03-23T16:34:04;17.40;99.90
2565;DHT22;1292;48.020;7.822;2023-03-23T16:36:31;17.40;99.90
2565;DHT22;1292;48.020;7.822;2023-03-23T16:38:58;17.30;99.90
2565;DHT22;1292;48.020;7.822;2023-03-23T16:41:27;17.30;99.90
2565;DHT22;1292;48.020;7.822;2023-03-23T16:43:53;17.20;99.90
2565;DHT22;1292;48.020;7.822;2023-03-23T16:46:20;17.20;99.90
2565;DHT22;1292;48.020;7.822;2023-03-23T16:48:47;17.20;99.90
2565;DHT22;1292;48.020;7.822;2023-03-23T16:51:14;17.20;99.90
2565;DHT22;1292;48.020;7.822;2023-03-23T16:53:41;17.20;99.90
2565;DHT22;1292;48.020;7.822;2023-03-23T16:56:09;17.20;99.90
2565;DHT22;1292;48.020;7.822;2023-03-23T16:58:37;17.10;99.90
2565;DHT22;1292;48.020;7.822;2023-03-23T17:01:04;17.10;99.90
2565;DHT22;1292;48.020;7.822;2023-03-23T17:03:31;17.10;99.90
2565;DHT22;1292;48.020;7.822;2023-03-23T17:05:59;17.00;99.90
2565;DHT22;1292;48.020;7.822;2023-03-23T17:08:26;17.10;99.90
2565;DHT22;1292;48.020;7.822;2023-03-23T17:10:53;17.10;99.90
2565;DHT22;1292;48.020;7.822;2023-03-23T17:13:20;17.10;99.90
2565;DHT22;1292;48.020;7.822;2023-03-23T17:15:51;17.10;99.90
2565;DHT22;1292;48.020;7.822;2023-03-23T17:18:18;17.10;99.90
2565;DHT22;1292;48.020;7.822;2023-03-23T17:20:45;17.10;99.90
2565;DHT22;1292;48.020;7.822;2023-03-23T17:23:12;17.10;99.90
2565;DHT22;1292;48.020;7.822;2023-03-23T17:25:39;17.00;99.90
2565;DHT22;1292;48.020;7.822;2023-03-23T17:28:06;17.00;99.90
2565;DHT22;1292;48.020;7.822;2023-03-23T17:30:33;17.00;99.90
2565;DHT22;1292;48.020;7.822;2023-03-23T17:33:01;17.00;99.90
2565;DHT22;1292;48.020;7.822;2023-03-23T17:35:28;17.00;99.90
2565;DHT22;1292;48.020;7.822;2023-03-23T17:37:55;17.00;99.90
2565;DHT22;1292;48.020;7.822;2023-03-23T17:40:22;17.00;99.90
2565;DHT22;1292;48.020;7.822;2023-03-23T17:42:49;17.00;99.90
2565;DHT22;1292;48.020;7.822;2023-03-23T17:45:16;17.00;99.90
2565;DHT22;1292;48.020;7.822;2023-03-23T17:47:43;17.00;99.90
2565;DHT22;1292;48.020;7.822;2023-03-23T17:50:11;17.00;99.90
2565;DHT22;1292;48.020;7.822;2023-03-23T17:52:38;17.00;99.90
2565;DHT22;1292;48.020;7.822;2023-03-23T17:55:06;17.00;99.90
2565;DHT22;1292;48.020;7.822;2023-03-23T17:57:33;17.00;99.90
2565;DHT22;1292;48.020;7.822;2023-03-23T18:00:00;16.90;99.90
2565;DHT22;1292;48.020;7.822;2023-03-23T18:02:27;16.90;99.90
2565;DHT22;1292;48.020;7.822;2023-03-23T18:04:55;16.90;99.90
2565;DHT22;1292;48.020;7.822;2023-03-23T18:07:25;16.90;99.90
2565;DHT22;1292;48.020;7.822;2023-03-23T18:09:56;16.90;99.90
2565;DHT22;1292;48.020;7.822;2023-03-23T18:12:23;16.90;99.90
2565;DHT22;1292;48.020;7.822;2023-03-23T18:14:50;16.90;99.90
2565;DHT22;1292;48.020;7.822;2023-03-23T18:17:20;16.90;99.90
2565;DHT22;1292;48.020;7.822;2023-03-23T18:19:47;16.80;99.90
2565;DHT22;1292;48.020;7.822;2023-03-23T18:22:14;16.90;99.90
2565;DHT22;1292;48.020;7.822;2023-03-23T18:24:42;16.90;99.90
2565;DHT22;1292;48.020;7.822;2023-03-23T18:27:09;16.90;99.90
2565;DHT22;1292;48.020;7.822;2023-03-23T18:29:36;16.90;99.90
2565;DHT22;1292;48.020;7.822;2023-03-23T18:32:03;17.00;99.90
2565;DHT22;1292;48.020;7.822;2023-03-23T18:34:31;16.90;99.90
2565;DHT22;1292;48.020;7.822;2023-03-23T18:36:58;16.90;99.90
2565;DHT22;1292;48.020;7.822;2023-03-23T18:39:25;17.00;99.90
2565;DHT22;1292;48.020;7.822;2023-03-23T18:41:53;16.90;99.90
2565;DHT22;1292;48.020;7.822;2023-03-23T18:44:20;17.00;99.90
2565;DHT22;1292;48.020;7.822;2023-03-23T18:46:47;17.00;99.90
2565;DHT22;1292;48.020;7.822;2023-03-23T18:49:14;17.00;99.90
2565;DHT22;1292;48.020;7.822;2023-03-23T18:51:41;17.00;99.90
2565;DHT22;1292;48.020;7.822;2023-03-23T18:54:08;17.00;99.90
2565;DHT22;1292;48.020;7.822;2023-03-23T18:56:35;16.90;99.90
2565;DHT22;1292;48.020;7.822;2023-03-23T18:59:03;16.90;99.90
2565;DHT22;1292;48.020;7.822;2023-03-23T19:01:30;16.90;99.90
2565;DHT22;1292;48.020;7.822;2023-03-23T19:03:57;16.90;99.90
2565;DHT22;1292;48.020;7.822;2023-03-23T19:06:25;16.90;99.90
2565;DHT22;1292;48.020;7.822;2023-03-23T19:08:54;16.90;99.90
2565;DHT22;1292;48.020;7.822;2023-03-23T19:11:23;16.90;99.90
2565;DHT22;1292;48.020;7.822;2023-03-23T19:13:51;16.90;99.90
2565;DHT22;1292;48.020;7.822;2023-03-23T19:16:20;16.90;99.90
2565;DHT22;1292;48.020;7.822;2023-03-23T19:18:47;16.90;99.90
2565;DHT22;1292;48.020;7.822;2023-03-23T19:21:14;16.90;99.90
2565;DHT22;1292;48.020;7.822;2023-03-23T19:23:41;16.90;99.90
2565;DHT22;1292;48.020;7.822;2023-03-23T19:26:09;16.90;99.90
2565;DHT22;1292;48.020;7.822;2023-03-23T19:28:40;16.80;99.90
2565;DHT22;1292;48.020;7.822;2023-03-23T19:31:07;16.80;99.90
2565;DHT22;1292;48.020;7.822;2023-03-23T19:33:35;16.80;99.90
2565;DHT22;1292;48.020;7.822;2023-03-23T19:36:02;16.80;99.90
2565;DHT22;1292;48.020;7.822;2023-03-23T19:38:29;16.80;99.90
2565;DHT22;1292;48.020;7.822;2023-03-23T19:40:56;16.70;99.90
2565;DHT22;1292;48.020;7.822;2023-03-23T19:43:26;16.70;99.90
2565;DHT22;1292;48.020;7.822;2023-03-23T19:45:53;16.70;99.90
2565;DHT22;1292;48.020;7.822;2023-03-23T19:48:20;16.60;99.90
2565;DHT22;1292;48.020;7.822;2023-03-23T19:50:49;16.60;99.90
2565;DHT22;1292;48.020;7.822;2023-03-23T19:53:17;16.60;99.90
2565;DHT22;1292;48.020;7.822;2023-03-23T19:55:44;16.50;99.90
2565;DHT22;1292;48.020;7.822;2023-03-23T19:58:11;16.50;99.90
2565;DHT22;1292;48.020;7.822;2023-03-23T20:00:38;16.40;99.90
2565;DHT22;1292;48.020;7.822;2023-03-23T20:03:05;16.40;99.90
2565;DHT22;1292;48.020;7.822;2023-03-23T20:05:33;16.30;99.90
2565;DHT22;1292;48.020;7.822;2023-03-23T20:08:01;16.30;99.90
2565;DHT22;1292;48.020;7.822;2023-03-23T20:10:28;16.30;99.90
2565;DHT22;1292;48.020;7.822;2023-03-23T20:12:55;16.20;99.90
2565;DHT22;1292;48.020;7.822;2023-03-23T20:15:22;16.20;99.90
2565;DHT22;1292;48.020;7.822;2023-03-23T20:17:49;16.10;99.90
2565;DHT22;1292;48.020;7.822;2023-03-23T20:20:17;16.10;99.90
2565;DHT22;1292;48.020;7.822;2023-03-23T20:22:44;16.10;99.90
2565;DHT22;1292;48.020;7.822;2023-03-23T20:25:12;16.00;99.90
2565;DHT22;1292;48.020;7.822;2023-03-23T20:27:39;16.00;99.90
2565;DHT22;1292;48.020;7.822;2023-03-23T20:30:07;16.00;99.90
2565;DHT22;1292;48.020;7.822;2023-03-23T20:32:34;16.00;99.90
2565;DHT22;1292;48.020;7.822;2023-03-23T20:35:02;16.00;99.90
2565;DHT22;1292;48.020;7.822;2023-03-23T20:37:34;16.00;99.90
2565;DHT22;1292;48.020;7.822;2023-03-23T20:40:02;15.90;99.90
2565;DHT22;1292;48.020;7.822;2023-03-23T20:42:32;15.90;99.90
2565;DHT22;1292;48.020;7.822;2023-03-23T20:44:59;15.90;99.90
2565;DHT22;1292;48.020;7.822;2023-03-23T20:47:27;15.80;99.90
2565;DHT22;1292;48.020;7.822;2023-03-23T20:49:54;15.80;99.90
2565;DHT22;1292;48.020;7.822;2023-03-23T20:52:21;15.80;99.90
2565;DHT22;1292;48.020;7.822;2023-03-23T20:54:50;15.70;99.90
2565;DHT22;1292;48.020;7.822;2023-03-23T20:57:18;15.60;99.90
2565;DHT22;1292;48.020;7.822;2023-03-23T20:59:46;15.50;99.90
2565;DHT22;1292;48.020;7.822;2023-03-23T21:02:16;15.50;99.90
2565;DHT22;1292;48.020;7.822;2023-03-23T21:04:43;15.40;99.90
2565;DHT22;1292;48.020;7.822;2023-03-23T21:07:11;15.30;99.90
2565;DHT22;1292;48.020;7.822;2023-03-23T21:09:38;15.30;99.90
2565;DHT22;1292;48.020;7.822;2023-03-23T21:12:05;15.20;99.90
2565;DHT22;1292;48.020;7.822;2023-03-23T21:14:34;15.10;99.90
2565;DHT22;1292;48.020;7.822;2023-03-23T21:17:03;15.10;99.90
2565;DHT22;1292;48.020;7.822;2023-03-23T21:19:30;15.00;99.90
2565;DHT22;1292;48.020;7.822;2023-03-23T21:21:57;15.00;99.90
2565;DHT22;1292;48.020;7.822;2023-03-23T21:24:26;15.10;99.90
2565;DHT22;1292;48.020;7.822;2023-03-23T21:26:54;14.90;99.90
2565;DHT22;1292;48.020;7.822;2023-03-23T21:29:21;14.90;99.90
2565;DHT22;1292;48.020;7.822;2023-03-23T21:31:49;15.00;99.90
2565;DHT22;1292;48.020;7.822;2023-03-23T21:34:17;14.90;99.90
2565;DHT22;1292;48.020;7.822;2023-03-23T21:36:44;14.80;99.90
2565;DHT22;1292;48.020;7.822;2023-03-23T21:39:11;14.80;99.90
2565;DHT22;1292;48.020;7.822;2023-03-23T21:41:40;14.80;99.90
2565;DHT22;1292;48.020;7.822;2023-03-23T21:44:06;14.70;99.90
2565;DHT22;1292;48.020;7.822;2023-03-23T21:46:35;14.70;99.90
2565;DHT22;1292;48.020;7.822;2023-03-23T21:49:04;14.80;99.90
2565;DHT22;1292;48.020;7.822;2023-03-23T21:51:36;14.70;99.90
2565;DHT22;1292;48.020;7.822;2023-03-23T21:54:03;14.70;99.90
2565;DHT22;1292;48.020;7.822;2023-03-23T21:56:30;14.80;99.90
2565;DHT22;1292;48.020;7.822;2023-03-23T21:58:57;14.80;99.90
